Time;durP1;ratioP1;P1;durP2;ratioP2;P2;SDS_P1;SDS_P2;PMS_P1;PMS_P2;Temp;Humidity;BMP_temperature;BMP_pressure;BME280_temperature;BME280_humidity;BME280_pressure;Samples;Min_cycle;Max_cycle;Signal;HPM_P1;HPM_P2
2023/06/27 00:01:18;;;;;;;5.85;5.25;;;;;;;;;;9946892;28;20046;-62
2023/06/27 00:06:10;;;;;;;5.97;5.38;;;;;;;;;;9949963;28;20069;-62
2023/06/27 00:11:02;;;;;;;6.20;5.60;;;;;;;;;;9949216;28;20150;-62
2023/06/27 00:15:53;;;;;;;5.60;5.10;;;;;;;;;;9945882;28;20047;-62
2023/06/27 00:20:45;;;;;;;5.80;5.22;;;;;;;;;;9946815;28;20146;-62
2023/06/27 00:25:37;;;;;;;6.13;5.57;;;;;;;;;;9946105;28;20458;-62
2023/06/27 00:30:29;;;;;;;5.78;5.28;;;;;;;;;;9947073;28;20145;-62
2023/06/27 00:35:21;;;;;;;5.70;5.20;;;;;;;;;;9944814;28;20038;-62
2023/06/27 00:40:13;;;;;;;6.20;5.60;;;;;;;;;;9947537;28;20077;-61
2023/06/27 00:45:07;;;;;;;5.47;4.97;;;;;;;;;;9947724;28;20077;-62
2023/06/27 00:49:59;;;;;;;7.28;6.57;;;;;;;;;;9947439;28;20067;-62
2023/06/27 00:54:52;;;;;;;5.47;4.97;;;;;;;;;;9946736;28;20094;-62
2023/06/27 00:59:45;;;;;;;5.68;5.03;;;;;;;;;;9929000;28;20094;-62
2023/06/27 01:04:37;;;;;;;5.63;5.13;;;;;;;;;;9929316;28;20038;-63
2023/06/27 01:09:47;;;;;;;5.75;5.15;;;;;;;;;;9961888;28;20098;-62
2023/06/27 01:14:43;;;;;;;5.68;5.18;;;;;;;;;;9954506;28;20077;-63
2023/06/27 01:19:36;;;;;;;5.78;5.20;;;;;;;;;;9967605;28;20504;-63
2023/06/27 01:24:28;;;;;;;5.63;5.13;;;;;;;;;;9952577;28;20085;-63
2023/06/27 01:29:20;;;;;;;5.43;4.93;;;;;;;;;;9951371;28;20078;-63
2023/06/27 01:34:32;;;;;;;6.15;5.55;;;;;;;;;;9953411;28;20126;-62
2023/06/27 01:39:33;;;;;;;5.03;4.60;;;;;;;;;;9955228;28;20436;-63
2023/06/27 01:44:25;;;;;;;4.85;4.45;;;;;;;;;;9954411;28;20104;-63
2023/06/27 01:49:17;;;;;;;5.05;4.57;;;;;;;;;;9933564;28;20473;-63
2023/06/27 01:54:09;;;;;;;7.50;4.88;;;;;;;;;;9952014;28;20046;-63
2023/06/27 01:59:02;;;;;;;5.28;4.78;;;;;;;;;;9952442;28;20122;-63
2023/06/27 02:03:53;;;;;;;5.15;4.65;;;;;;;;;;9967866;28;20094;-63
2023/06/27 02:08:48;;;;;;;5.50;5.00;;;;;;;;;;9952288;28;20070;-63
2023/06/27 02:13:39;;;;;;;5.03;4.53;;;;;;;;;;9952772;28;20141;-62
2023/06/27 02:18:31;;;;;;;4.88;4.47;;;;;;;;;;9948261;28;20043;-63
2023/06/27 02:23:25;;;;;;;5.80;5.20;;;;;;;;;;9948869;28;20366;-63
2023/06/27 02:28:17;;;;;;;5.32;4.82;;;;;;;;;;9949298;28;20278;-63
2023/06/27 02:33:09;;;;;;;6.32;5.72;;;;;;;;;;9950671;28;20050;-63
2023/06/27 02:38:01;;;;;;;5.07;4.63;;;;;;;;;;9951575;28;20373;-63
2023/06/27 02:42:53;;;;;;;5.80;5.20;;;;;;;;;;9950589;28;20129;-63
2023/06/27 02:47:46;;;;;;;6.28;5.65;;;;;;;;;;9950635;28;20433;-63
2023/06/27 02:52:37;;;;;;;5.40;4.90;;;;;;;;;;9950050;28;20038;-63
2023/06/27 02:57:30;;;;;;;5.03;4.63;;;;;;;;;;9950950;28;20405;-63
2023/06/27 03:02:23;;;;;;;6.65;5.93;;;;;;;;;;9949210;28;20053;-63
2023/06/27 03:07:15;;;;;;;6.07;5.47;;;;;;;;;;9951992;28;20042;-63
2023/06/27 03:12:08;;;;;;;4.95;4.50;;;;;;;;;;9953093;28;20446;-63
2023/06/27 03:17:01;;;;;;;5.38;4.88;;;;;;;;;;9940784;28;20084;-64
2023/06/27 03:21:53;;;;;;;5.30;4.80;;;;;;;;;;9942956;28;20406;-63
2023/06/27 03:26:45;;;;;;;4.78;4.38;;;;;;;;;;9961093;28;20057;-63
2023/06/27 03:31:37;;;;;;;5.55;5.05;;;;;;;;;;9962277;28;20055;-63
2023/06/27 03:36:33;;;;;;;4.97;4.47;;;;;;;;;;9935248;28;20042;-63
2023/06/27 03:41:26;;;;;;;5.57;5.07;;;;;;;;;;9966355;28;20086;-63
2023/06/27 03:46:18;;;;;;;5.65;5.15;;;;;;;;;;9966461;28;20078;-64
2023/06/27 03:51:10;;;;;;;5.25;4.75;;;;;;;;;;9950484;28;20058;-63
2023/06/27 03:56:03;;;;;;;5.72;5.22;;;;;;;;;;9951060;28;20093;-63
2023/06/27 04:00:56;;;;;;;5.03;4.63;;;;;;;;;;9949303;28;20074;-63
2023/06/27 04:05:48;;;;;;;5.50;4.93;;;;;;;;;;9950340;28;20070;-63
2023/06/27 04:10:42;;;;;;;4.70;4.30;;;;;;;;;;9948962;28;20051;-63
2023/06/27 04:15:39;;;;;;;4.97;4.57;;;;;;;;;;9950760;28;20511;-63
2023/06/27 04:20:33;;;;;;;4.80;4.40;;;;;;;;;;9949276;28;20047;-63
2023/06/27 04:25:30;;;;;;;4.45;4.05;;;;;;;;;;9948680;28;20046;-63
2023/06/27 04:30:22;;;;;;;5.13;4.70;;;;;;;;;;9965070;28;20049;-63
2023/06/27 04:35:17;;;;;;;5.35;4.82;;;;;;;;;;9950261;28;20521;-63
2023/06/27 04:40:10;;;;;;;4.80;4.30;;;;;;;;;;9948447;28;20050;-63
2023/06/27 04:45:03;;;;;;;5.63;5.13;;;;;;;;;;9961172;28;20035;-63
2023/06/27 04:49:55;;;;;;;5.47;4.97;;;;;;;;;;9948616;28;20043;-63
2023/06/27 04:54:50;;;;;;;5.40;4.90;;;;;;;;;;9946619;28;20074;-64
2023/06/27 04:59:43;;;;;;;4.18;3.85;;;;;;;;;;9946185;28;20081;-64
2023/06/27 05:04:34;;;;;;;5.72;5.13;;;;;;;;;;9946665;28;20047;-64
2023/06/27 05:09:27;;;;;;;5.38;4.88;;;;;;;;;;9946511;28;20373;-64
2023/06/27 05:14:18;;;;;;;5.20;4.70;;;;;;;;;;9947847;28;20118;-64
2023/06/27 05:19:10;;;;;;;5.97;5.40;;;;;;;;;;9943973;28;20051;-64
2023/06/27 05:24:05;;;;;;;5.05;4.55;;;;;;;;;;9944812;28;20082;-65
2023/06/27 05:28:57;;;;;;;5.40;4.95;;;;;;;;;;9945864;28;20098;-64
2023/06/27 05:33:49;;;;;;;5.22;4.72;;;;;;;;;;9925561;28;20051;-65
2023/06/27 05:38:41;;;;;;;5.68;5.18;;;;;;;;;;9945621;28;20070;-64
2023/06/27 05:43:33;;;;;;;5.30;4.80;;;;;;;;;;9946370;28;20199;-64
2023/06/27 05:48:25;;;;;;;7.18;5.45;;;;;;;;;;9945039;28;20369;-65
2023/06/27 05:53:17;;;;;;;5.20;4.70;;;;;;;;;;9960262;28;20047;-64
2023/06/27 05:58:08;;;;;;;4.93;4.50;;;;;;;;;;9913570;28;20109;-64
2023/06/27 06:03:00;;;;;;;5.63;4.80;;;;;;;;;;9950937;28;20051;-65
2023/06/27 06:07:52;;;;;;;4.78;4.38;;;;;;;;;;9935215;28;20055;-65
2023/06/27 06:12:44;;;;;;;5.53;5.03;;;;;;;;;;9957082;28;20042;-65
2023/06/27 06:17:36;;;;;;;9.77;5.60;;;;;;;;;;9966897;28;20043;-65
2023/06/27 06:22:28;;;;;;;5.90;5.32;;;;;;;;;;9953472;28;20045;-65
2023/06/27 06:27:19;;;;;;;6.88;5.85;;;;;;;;;;9952482;28;20110;-65
2023/06/27 06:32:11;;;;;;;5.72;4.90;;;;;;;;;;9954070;28;20427;-62
2023/06/27 06:37:03;;;;;;;9.18;6.45;;;;;;;;;;9952483;28;20039;-63
2023/06/27 06:41:55;;;;;;;8.68;5.90;;;;;;;;;;9952524;28;20086;-64
2023/06/27 06:46:49;;;;;;;8.63;6.35;;;;;;;;;;9933734;28;20466;-64
2023/06/27 06:51:41;;;;;;;8.48;6.32;;;;;;;;;;9923871;28;20062;-64
2023/06/27 06:56:32;;;;;;;11.88;7.35;;;;;;;;;;9951243;28;20138;-64
2023/06/27 07:01:24;;;;;;;6.25;5.68;;;;;;;;;;9948051;28;20038;-64
2023/06/27 07:06:16;;;;;;;8.35;7.40;;;;;;;;;;9946151;28;20142;-64
2023/06/27 07:11:08;;;;;;;6.32;5.72;;;;;;;;;;9948018;28;20138;-64
2023/06/27 07:16:00;;;;;;;7.95;6.82;;;;;;;;;;9940485;28;20473;-64
2023/06/27 07:20:52;;;;;;;7.53;6.00;;;;;;;;;;9947421;28;20050;-64
2023/06/27 07:25:44;;;;;;;7.30;6.35;;;;;;;;;;9949246;28;20503;-64
2023/06/27 07:30:36;;;;;;;6.78;6.18;;;;;;;;;;9948328;28;20524;-64
2023/06/27 07:35:30;;;;;;;6.75;6.15;;;;;;;;;;9947997;28;20074;-64
2023/06/27 07:40:22;;;;;;;7.50;6.80;;;;;;;;;;9948772;28;20129;-64
2023/06/27 07:45:14;;;;;;;6.88;6.28;;;;;;;;;;9949458;28;20069;-64
2023/06/27 07:50:06;;;;;;;7.88;5.45;;;;;;;;;;9948482;28;20070;-64
2023/06/27 07:54:58;;;;;;;7.35;6.65;;;;;;;;;;9946878;28;20046;-63
2023/06/27 07:59:50;;;;;;;5.97;5.38;;;;;;;;;;9948696;28;20054;-64
2023/06/27 08:04:43;;;;;;;6.72;6.05;;;;;;;;;;9949535;28;20138;-64
2023/06/27 08:09:35;;;;;;;7.25;6.55;;;;;;;;;;9950106;28;20047;-64
2023/06/27 08:14:27;;;;;;;9.63;6.65;;;;;;;;;;9947416;28;20078;-64
2023/06/27 08:19:19;;;;;;;6.68;5.97;;;;;;;;;;9947691;28;20046;-64
2023/06/27 08:24:11;;;;;;;6.30;5.70;;;;;;;;;;9942504;28;20079;-64
2023/06/27 08:29:03;;;;;;;8.02;5.82;;;;;;;;;;9946701;28;20070;-64
2023/06/27 08:33:55;;;;;;;6.32;5.72;;;;;;;;;;9946337;28;20047;-64
2023/06/27 08:38:47;;;;;;;6.55;5.93;;;;;;;;;;9949409;28;20046;-64
2023/06/27 08:43:39;;;;;;;5.88;5.38;;;;;;;;;;9947951;28;20122;-64
2023/06/27 08:48:30;;;;;;;6.53;5.93;;;;;;;;;;9947515;28;20098;-64
2023/06/27 08:53:22;;;;;;;7.57;5.80;;;;;;;;;;9946331;28;20071;-64
2023/06/27 08:58:15;;;;;;;6.07;5.47;;;;;;;;;;9962134;28;20070;-64
2023/06/27 09:03:07;;;;;;;6.78;5.82;;;;;;;;;;9947300;28;20047;-64
2023/06/27 09:07:59;;;;;;;6.18;5.57;;;;;;;;;;9930283;28;20409;-63
2023/06/27 09:12:53;;;;;;;6.75;6.15;;;;;;;;;;9924350;28;20090;-64
2023/06/27 09:17:46;;;;;;;8.48;6.32;;;;;;;;;;9946049;28;20488;-64
2023/06/27 09:22:38;;;;;;;5.85;5.30;;;;;;;;;;9945750;28;20536;-64
2023/06/27 09:27:34;;;;;;;7.00;5.95;;;;;;;;;;9946131;28;20054;-64
2023/06/27 09:32:26;;;;;;;6.47;5.88;;;;;;;;;;9941345;28;20043;-64
2023/06/27 09:37:21;;;;;;;6.53;5.97;;;;;;;;;;9942593;28;20065;-64
2023/06/27 09:42:16;;;;;;;6.07;5.57;;;;;;;;;;9940931;28;20117;-64
2023/06/27 09:47:10;;;;;;;6.18;5.57;;;;;;;;;;9934231;28;20077;-64
2023/06/27 09:52:04;;;;;;;6.20;5.63;;;;;;;;;;9918324;28;20054;-64
2023/06/27 09:56:56;;;;;;;8.02;5.68;;;;;;;;;;9937772;28;20051;-64
2023/06/27 10:01:49;;;;;;;6.35;5.85;;;;;;;;;;9940796;28;20071;-64
2023/06/27 10:06:41;;;;;;;6.05;5.45;;;;;;;;;;9945133;28;20050;-64
2023/06/27 10:11:35;;;;;;;7.18;6.47;;;;;;;;;;9952460;28;20078;-64
2023/06/27 10:16:28;;;;;;;7.30;5.80;;;;;;;;;;9952247;28;20050;-65
2023/06/27 10:21:20;;;;;;;5.88;5.38;;;;;;;;;;9936178;28;20039;-65
2023/06/27 10:26:12;;;;;;;7.03;5.65;;;;;;;;;;9937530;28;20051;-65
2023/06/27 10:31:04;;;;;;;6.32;5.78;;;;;;;;;;9939630;28;20471;-64
2023/06/27 10:35:58;;;;;;;6.60;6.00;;;;;;;;;;9945329;28;20109;-64
2023/06/27 10:41:00;;;;;;;6.32;5.72;;;;;;;;;;9948274;28;20050;-65
2023/06/27 10:46:08;;;;;;;6.85;6.25;;;;;;;;;;9939104;28;20050;-65
2023/06/27 10:51:05;;;;;;;;;;;;;;;;;;9937313;28;20070;-64
2023/06/27 10:55:57;;;;;;;6.60;5.88;;;;;;;;;;9937849;28;19922;-64
2023/06/27 11:00:54;;;;;;;7.25;6.47;;;;;;;;;;9939959;28;20075;-64
2023/06/27 11:05:49;;;;;;;6.57;5.72;;;;;;;;;;9930307;28;20048;-64
2023/06/27 11:10:53;;;;;;;7.25;6.28;;;;;;;;;;9945257;28;20926;-65
2023/06/27 11:15:45;;;;;;;6.88;6.18;;;;;;;;;;9946517;28;20113;-65
2023/06/27 11:20:37;;;;;;;6.85;6.00;;;;;;;;;;9944460;28;20351;-65
2023/06/27 11:25:42;;;;;;;6.80;6.20;;;;;;;;;;9941474;28;20462;-65
2023/06/27 11:30:35;;;;;;;7.05;6.45;;;;;;;;;;9935320;28;20498;-65
2023/06/27 11:35:28;;;;;;;9.38;6.18;;;;;;;;;;9942090;28;20086;-64
2023/06/27 11:40:23;;;;;;;6.63;6.03;;;;;;;;;;9942708;28;20373;-64
2023/06/27 11:45:15;;;;;;;6.63;5.82;;;;;;;;;;9934291;28;20377;-65
2023/06/27 11:50:09;;;;;;;6.55;5.78;;;;;;;;;;9946491;28;20054;-64
2023/06/27 11:55:02;;;;;;;6.80;6.20;;;;;;;;;;9947258;28;20074;-65
2023/06/27 11:59:56;;;;;;;7.28;6.57;;;;;;;;;;9945877;28;20050;-65
2023/06/27 12:04:56;;;;;;;6.88;6.28;;;;;;;;;;9946445;28;20053;-65
2023/06/27 12:10:03;;;;;;;7.38;6.68;;;;;;;;;;9946390;28;20035;-65
2023/06/27 12:15:14;;;;;;;6.53;5.93;;;;;;;;;;9946604;28;20105;-65
2023/06/27 12:20:06;;;;;;;7.75;6.13;;;;;;;;;;9946657;28;20377;-65
2023/06/27 12:24:58;;;;;;;7.80;7.13;;;;;;;;;;9945893;28;20054;-65
2023/06/27 12:29:50;;;;;;;7.40;6.50;;;;;;;;;;9943482;28;20093;-65
2023/06/27 12:34:42;;;;;;;6.35;5.80;;;;;;;;;;9934777;28;20048;-65
2023/06/27 12:39:34;;;;;;;7.45;6.55;;;;;;;;;;9925722;28;20366;-65
2023/06/27 12:44:26;;;;;;;7.65;6.57;;;;;;;;;;9929392;28;20047;-65
2023/06/27 12:49:18;;;;;;;8.07;7.38;;;;;;;;;;9935028;28;20090;-65
2023/06/27 12:54:10;;;;;;;6.85;6.25;;;;;;;;;;9928463;28;20051;-65
2023/06/27 12:59:01;;;;;;;7.30;6.60;;;;;;;;;;9929708;28;20043;-65
2023/06/27 13:03:53;;;;;;;11.45;7.40;;;;;;;;;;9933780;28;20050;-64
2023/06/27 13:08:46;;;;;;;6.47;5.97;;;;;;;;;;9949673;28;20051;-64
2023/06/27 13:13:38;;;;;;;7.30;6.60;;;;;;;;;;9930259;28;20043;-65
2023/06/27 13:18:30;;;;;;;8.18;6.38;;;;;;;;;;9941772;28;20469;-64
2023/06/27 13:23:22;;;;;;;7.10;6.50;;;;;;;;;;9953000;28;20142;-64
2023/06/27 13:28:14;;;;;;;7.60;6.85;;;;;;;;;;9950262;28;20038;-65
2023/06/27 13:33:06;;;;;;;7.65;6.22;;;;;;;;;;9948767;28;20077;-64
2023/06/27 13:37:58;;;;;;;7.55;6.85;;;;;;;;;;9951203;28;20492;-64
2023/06/27 13:42:53;;;;;;;8.27;7.50;;;;;;;;;;9950496;28;20540;-64
2023/06/27 13:47:44;;;;;;;7.32;6.63;;;;;;;;;;9951841;28;20055;-63
2023/06/27 13:52:36;;;;;;;8.18;7.38;;;;;;;;;;9939909;28;20046;-64
2023/06/27 13:57:28;;;;;;;7.63;6.90;;;;;;;;;;9952666;28;20423;-64
2023/06/27 14:02:21;;;;;;;7.68;6.97;;;;;;;;;;9951950;28;20122;-64
2023/06/27 14:07:32;;;;;;;8.40;7.63;;;;;;;;;;9952049;28;20188;-62
2023/06/27 14:12:24;;;;;;;8.20;7.18;;;;;;;;;;9953238;28;20047;-62
2023/06/27 14:17:15;;;;;;;7.18;6.57;;;;;;;;;;9951792;28;20058;-61
2023/06/27 14:22:08;;;;;;;7.35;6.60;;;;;;;;;;9950333;28;20106;-61
2023/06/27 14:26:59;;;;;;;7.50;6.70;;;;;;;;;;9950607;28;20071;-63
2023/06/27 14:31:51;;;;;;;8.27;7.55;;;;;;;;;;9949917;28;20053;-63
2023/06/27 14:36:44;;;;;;;8.45;7.57;;;;;;;;;;9950671;28;20077;-63
2023/06/27 14:41:37;;;;;;;7.97;7.18;;;;;;;;;;9936399;28;20184;-64
2023/06/27 14:46:28;;;;;;;7.43;6.82;;;;;;;;;;9936411;28;20085;-63
2023/06/27 14:51:21;;;;;;;8.10;7.40;;;;;;;;;;9937567;28;20050;-63
2023/06/27 14:56:13;;;;;;;8.05;7.35;;;;;;;;;;9935464;28;20043;-62
2023/06/27 15:01:05;;;;;;;7.43;6.82;;;;;;;;;;9939279;28;20068;-65
2023/06/27 15:05:57;;;;;;;7.40;6.80;;;;;;;;;;9930023;28;20043;-60
2023/06/27 15:10:54;;;;;;;7.75;7.05;;;;;;;;;;9939367;28;20047;-59
2023/06/27 15:15:46;;;;;;;7.88;7.18;;;;;;;;;;9937084;28;20067;-60
2023/06/27 15:20:38;;;;;;;7.70;7.00;;;;;;;;;;9937149;28;20031;-60
2023/06/27 15:25:30;;;;;;;7.68;6.97;;;;;;;;;;9931400;28;20049;-60
2023/06/27 15:30:24;;;;;;;8.60;7.80;;;;;;;;;;9925039;28;20043;-59
2023/06/27 15:35:16;;;;;;;8.57;7.78;;;;;;;;;;9935817;28;20049;-60
2023/06/27 15:40:09;;;;;;;10.02;7.25;;;;;;;;;;9920380;28;20047;-60
2023/06/27 15:45:01;;;;;;;8.18;7.47;;;;;;;;;;9943784;28;20111;-60
2023/06/27 15:49:53;;;;;;;9.00;8.20;;;;;;;;;;9942821;28;20047;-60
2023/06/27 15:54:44;;;;;;;7.25;6.65;;;;;;;;;;9945070;28;20149;-60
2023/06/27 15:59:36;;;;;;;8.45;7.75;;;;;;;;;;9945015;28;20042;-60
2023/06/27 16:04:28;;;;;;;8.05;7.30;;;;;;;;;;9940753;28;20063;-60
2023/06/27 16:09:21;;;;;;;8.32;7.53;;;;;;;;;;9917423;28;20047;-59
2023/06/27 16:14:14;;;;;;;9.02;7.88;;;;;;;;;;9944704;28;20047;-60
2023/06/27 16:19:06;;;;;;;8.60;7.90;;;;;;;;;;9944227;28;20091;-60
2023/06/27 16:23:58;;;;;;;9.65;8.80;;;;;;;;;;9943335;28;20448;-60
2023/06/27 16:28:50;;;;;;;9.13;8.18;;;;;;;;;;9946871;28;20066;-60
2023/06/27 16:33:42;;;;;;;8.65;7.88;;;;;;;;;;9946696;28;20092;-60
2023/06/27 16:38:34;;;;;;;8.30;7.53;;;;;;;;;;9946397;28;20101;-60
2023/06/27 16:43:26;;;;;;;8.80;8.10;;;;;;;;;;9945021;28;20038;-60
2023/06/27 16:48:17;;;;;;;8.63;7.70;;;;;;;;;;9946781;28;20122;-60
2023/06/27 16:53:12;;;;;;;8.48;7.68;;;;;;;;;;9945901;28;20544;-59
2023/06/27 16:58:04;;;;;;;8.50;7.70;;;;;;;;;;9956613;28;20097;-60
2023/06/27 17:02:55;;;;;;;8.85;7.93;;;;;;;;;;9955461;28;20038;-60
2023/06/27 17:07:48;;;;;;;8.90;8.18;;;;;;;;;;9954228;28;20038;-59
2023/06/27 17:12:40;;;;;;;8.55;7.85;;;;;;;;;;9951463;28;20361;-60
2023/06/27 17:17:32;;;;;;;11.15;9.02;;;;;;;;;;9957308;28;20043;-59
2023/06/27 17:22:24;;;;;;;9.35;7.97;;;;;;;;;;9972643;28;20051;-60
2023/06/27 17:27:16;;;;;;;10.48;7.97;;;;;;;;;;9947124;28;20047;-60
2023/06/27 17:32:08;;;;;;;9.90;8.05;;;;;;;;;;9951777;28;20050;-59
2023/06/27 17:37:00;;;;;;;9.98;8.10;;;;;;;;;;9963490;28;20047;-59
2023/06/27 17:41:52;;;;;;;9.15;8.18;;;;;;;;;;9945457;28;20074;-59
2023/06/27 17:46:43;;;;;;;11.88;10.18;;;;;;;;;;9948385;28;20045;-60
2023/06/27 17:51:35;;;;;;;9.35;8.45;;;;;;;;;;9969651;28;20379;-60
2023/06/27 17:56:27;;;;;;;10.88;8.50;;;;;;;;;;9962961;28;20047;-59
2023/06/27 18:01:19;;;;;;;8.63;7.47;;;;;;;;;;9960432;28;20043;-60
2023/06/27 18:06:11;;;;;;;8.38;7.55;;;;;;;;;;9941815;28;20050;-59
2023/06/27 18:11:03;;;;;;;8.95;7.15;;;;;;;;;;9947411;28;20046;-60
2023/06/27 18:15:55;;;;;;;8.43;7.72;;;;;;;;;;9939477;28;20432;-60
2023/06/27 18:20:47;;;;;;;10.93;7.72;;;;;;;;;;9943141;28;20046;-60
2023/06/27 18:25:39;;;;;;;9.27;7.28;;;;;;;;;;9961967;28;20046;-60
2023/06/27 18:30:31;;;;;;;8.55;7.75;;;;;;;;;;9964733;28;20043;-60
2023/06/27 18:35:23;;;;;;;9.43;7.20;;;;;;;;;;9954261;28;20050;-60
2023/06/27 18:40:15;;;;;;;8.80;8.00;;;;;;;;;;9951920;28;20043;-60
2023/06/27 18:45:07;;;;;;;12.15;8.00;;;;;;;;;;9919335;28;20054;-60
2023/06/27 18:49:59;;;;;;;7.97;7.20;;;;;;;;;;9953872;28;20058;-59
2023/06/27 18:54:51;;;;;;;9.30;7.80;;;;;;;;;;9926806;28;20074;-60
2023/06/27 18:59:43;;;;;;;7.95;7.15;;;;;;;;;;9940997;28;20103;-60
2023/06/27 19:04:35;;;;;;;8.55;7.75;;;;;;;;;;9939619;28;20465;-60
2023/06/27 19:09:28;;;;;;;8.38;7.22;;;;;;;;;;9932997;28;20388;-48
2023/06/27 19:14:20;;;;;;;9.13;8.32;;;;;;;;;;9920816;28;20365;-51
2023/06/27 19:19:11;;;;;;;10.55;7.22;;;;;;;;;;9933737;28;20043;-49
2023/06/27 19:24:04;;;;;;;8.52;7.70;;;;;;;;;;9944910;28;20050;-49
2023/06/27 19:28:57;;;;;;;9.50;8.18;;;;;;;;;;9938997;28;20082;-50
2023/06/27 19:33:52;;;;;;;7.78;7.07;;;;;;;;;;9939233;28;20479;-50
2023/06/27 19:38:45;;;;;;;8.93;8.13;;;;;;;;;;9940053;28;20051;-48
2023/06/27 19:43:36;;;;;;;10.32;7.68;;;;;;;;;;9943980;28;20043;-49
2023/06/27 19:48:28;;;;;;;11.05;8.40;;;;;;;;;;9940442;28;20381;-49
2023/06/27 19:53:20;;;;;;;10.23;7.95;;;;;;;;;;9930431;28;20109;-50
2023/06/27 19:58:12;;;;;;;8.40;7.60;;;;;;;;;;9944591;28;20409;-50
2023/06/27 20:03:05;;;;;;;10.30;8.23;;;;;;;;;;9933765;28;20043;-49
2023/06/27 20:07:57;;;;;;;8.30;7.60;;;;;;;;;;9928426;28;20047;-49
2023/06/27 20:12:49;;;;;;;8.90;8.00;;;;;;;;;;9925244;28;20051;-50
2023/06/27 20:17:44;;;;;;;11.73;8.27;;;;;;;;;;9931812;28;20074;-49
2023/06/27 20:22:37;;;;;;;10.23;8.90;;;;;;;;;;9936839;28;20385;-49
2023/06/27 20:27:29;;;;;;;9.30;8.40;;;;;;;;;;9938523;28;20043;-52
2023/06/27 20:32:20;;;;;;;9.07;8.18;;;;;;;;;;9915238;28;20564;-52
2023/06/27 20:37:12;;;;;;;13.07;8.05;;;;;;;;;;9922231;28;20051;-50
2023/06/27 20:42:04;;;;;;;8.75;7.85;;;;;;;;;;9947601;28;20065;-51
2023/06/27 20:46:56;;;;;;;11.60;8.90;;;;;;;;;;9964921;28;20042;-51
2023/06/27 20:51:50;;;;;;;8.70;7.80;;;;;;;;;;9940686;28;20054;-48
2023/06/27 20:56:44;;;;;;;10.65;8.70;;;;;;;;;;9914706;28;20110;-46
2023/06/27 21:01:36;;;;;;;10.18;9.05;;;;;;;;;;9910655;28;20090;-47
2023/06/27 21:06:28;;;;;;;10.30;8.55;;;;;;;;;;9916718;28;20057;-48
2023/06/27 21:11:20;;;;;;;10.95;9.32;;;;;;;;;;9926802;28;20047;-52
2023/06/27 21:16:13;;;;;;;10.57;9.32;;;;;;;;;;9959135;28;20062;-51
2023/06/27 21:21:05;;;;;;;10.20;8.60;;;;;;;;;;9944584;28;20045;-46
2023/06/27 21:25:58;;;;;;;10.07;8.68;;;;;;;;;;9948346;28;20066;-47
2023/06/27 21:30:51;;;;;;;11.15;9.18;;;;;;;;;;9965710;28;20122;-51
2023/06/27 21:35:43;;;;;;;11.32;8.27;;;;;;;;;;9955532;28;20096;-50
2023/06/27 21:40:35;;;;;;;11.10;9.15;;;;;;;;;;9971800;28;20101;-45
2023/06/27 21:45:27;;;;;;;11.02;9.27;;;;;;;;;;9959858;28;20042;-47
2023/06/27 21:50:27;;;;;;;9.13;8.32;;;;;;;;;;9960558;28;20146;-45
2023/06/27 21:55:19;;;;;;;12.55;8.73;;;;;;;;;;9965083;28;20049;-45
2023/06/27 22:00:14;;;;;;;9.85;8.95;;;;;;;;;;9951023;28;20055;-46
2023/06/27 22:05:06;;;;;;;9.32;8.32;;;;;;;;;;9943624;28;20047;-45
2023/06/27 22:09:58;;;;;;;10.23;9.05;;;;;;;;;;9945659;28;20483;-44
2023/06/27 22:14:50;;;;;;;13.45;9.68;;;;;;;;;;9938289;28;20061;-48
2023/06/27 22:19:42;;;;;;;9.13;8.23;;;;;;;;;;9947344;28;20043;-53
2023/06/27 22:24:34;;;;;;;9.80;8.57;;;;;;;;;;9935104;28;20055;-48
2023/06/27 22:29:26;;;;;;;10.40;8.57;;;;;;;;;;9949036;28;20131;-52
2023/06/27 22:34:18;;;;;;;10.80;8.15;;;;;;;;;;9953992;28;20054;-51
2023/06/27 22:39:10;;;;;;;9.32;7.88;;;;;;;;;;9965936;28;20428;-51
2023/06/27 22:44:02;;;;;;;9.43;8.57;;;;;;;;;;9950474;28;20070;-53
2023/06/27 22:48:54;;;;;;;8.55;7.65;;;;;;;;;;9915219;28;20079;-51
2023/06/27 22:53:46;;;;;;;9.82;8.93;;;;;;;;;;9943173;28;20047;-52
2023/06/27 22:58:39;;;;;;;9.25;8.30;;;;;;;;;;9953418;28;20070;-51
2023/06/27 23:03:31;;;;;;;10.02;9.02;;;;;;;;;;9953104;28;20046;-55
2023/06/27 23:08:23;;;;;;;9.38;8.45;;;;;;;;;;9937292;28;20465;-52
2023/06/27 23:13:15;;;;;;;9.50;8.15;;;;;;;;;;9949380;28;20054;-54
2023/06/27 23:18:09;;;;;;;8.63;7.82;;;;;;;;;;9948341;28;20429;-53
2023/06/27 23:23:08;;;;;;;9.23;8.32;;;;;;;;;;9948576;28;20082;-51
2023/06/27 23:28:00;;;;;;;7.90;7.13;;;;;;;;;;9951538;28;20066;-53
2023/06/27 23:32:55;;;;;;;8.23;7.35;;;;;;;;;;9952226;28;20051;-52
2023/06/27 23:37:47;;;;;;;11.40;7.68;;;;;;;;;;9951815;28;20065;-52
2023/06/27 23:42:39;;;;;;;9.65;8.75;;;;;;;;;;9952270;28;20043;-52
2023/06/27 23:47:31;;;;;;;10.05;9.05;;;;;;;;;;9951721;28;20565;-48
2023/06/27 23:52:23;;;;;;;12.25;8.52;;;;;;;;;;9949999;28;20065;-51
2023/06/27 23:57:15;;;;;;;8.20;7.40;;;;;;;;;;9946479;28;20098;-50
